Time;durP1;ratioP1;P1;durP2;ratioP2;P2;SDS_P1;SDS_P2;PMS_P1;PMS_P2;Temp;Humidity;BMP_temperature;BMP_pressure;BME280_temperature;BME280_humidity;BME280_pressure;Samples;Min_cycle;Max_cycle;Signal;HPM_P1;HPM_P2
2023/09/23 00:01:57;;;;;;;4.47;4.37;;;14.60;38.50;;;;;;4982091;28;20285;-77
2023/09/23 00:04:22;;;;;;;5.00;4.80;;;14.50;38.60;;;;;;4986138;28;20497;-77
2023/09/23 00:06:49;;;;;;;5.10;4.90;;;14.60;39.00;;;;;;4986622;28;20453;-79
2023/09/23 00:09:17;;;;;;;5.30;5.10;;;14.70;38.70;;;;;;4982574;28;21185;-78
2023/09/23 00:11:43;;;;;;;5.10;4.80;;;15.00;37.80;;;;;;4983053;28;20515;-79
2023/09/23 00:14:10;;;;;;;5.53;5.33;;;15.00;35.90;;;;;;4984777;28;20430;-79
2023/09/23 00:16:36;;;;;;;5.40;5.20;;;14.80;35.90;;;;;;4985600;28;20437;-78
2023/09/23 00:19:02;;;;;;;5.00;4.70;;;14.70;36.50;;;;;;4983780;28;20465;-79
2023/09/23 00:21:27;;;;;;;5.50;5.30;;;14.60;37.00;;;;;;4984345;28;20269;-79
2023/09/23 00:23:53;;;;;;;5.30;5.10;;;14.70;36.90;;;;;;4983170;28;20861;-79
2023/09/23 00:26:22;;;;;;;5.03;4.83;;;14.70;35.70;;;;;;4982862;28;20210;-79
2023/09/23 00:28:48;;;;;;;4.90;4.70;;;14.60;36.90;;;;;;4983237;28;20211;-78
2023/09/23 00:31:14;;;;;;;5.73;5.43;;;14.60;36.20;;;;;;4985262;28;20466;-79
2023/09/23 00:33:44;;;;;;;5.20;5.00;;;14.60;36.10;;;;;;4986434;28;20186;-77
2023/09/23 00:36:10;;;;;;;4.80;4.70;;;14.70;36.00;;;;;;4985783;28;20417;-79
2023/09/23 00:38:37;;;;;;;5.27;4.97;;;14.60;35.50;;;;;;4984743;28;20973;-79
2023/09/23 00:41:06;;;;;;;4.43;4.23;;;14.60;35.50;;;;;;4983307;28;20450;-79
2023/09/23 00:43:34;;;;;;;5.00;4.80;;;14.60;35.60;;;;;;4990682;28;20457;-80
2023/09/23 00:46:03;;;;;;;5.07;4.80;;;14.70;35.60;;;;;;4989951;28;20425;-79
2023/09/23 00:48:33;;;;;;;5.23;4.97;;;14.90;35.80;;;;;;4987489;28;20992;-80
2023/09/23 00:50:59;;;;;;;4.80;4.60;;;15.00;35.00;;;;;;4988727;28;20468;-80
2023/09/23 00:53:25;;;;;;;4.97;4.77;;;15.10;33.60;;;;;;4992369;28;20861;-79
2023/09/23 00:55:55;;;;;;;4.90;4.60;;;14.90;32.80;;;;;;4991116;28;20463;-77
2023/09/23 00:58:22;;;;;;;4.83;4.73;;;14.70;33.20;;;;;;4993294;28;20492;-79
2023/09/23 01:00:53;;;;;;;4.73;4.53;;;14.60;33.60;;;;;;4996158;28;20473;-79
2023/09/23 01:03:21;;;;;;;5.60;5.30;;;14.60;33.20;;;;;;4994433;28;20711;-79
2023/09/23 01:05:58;;;;;;;5.30;5.13;;;14.50;33.70;;;;;;4997230;28;20410;-78
2023/09/23 01:08:25;;;;;;;4.80;4.70;;;14.40;33.70;;;;;;4989277;28;20434;-78
2023/09/23 01:10:50;;;;;;;5.80;5.60;;;14.30;34.10;;;;;;4992733;28;20452;-79
2023/09/23 01:13:20;;;;;;;5.27;5.07;;;14.10;34.40;;;;;;4988900;28;20434;-78
2023/09/23 01:15:46;;;;;;;5.37;5.17;;;14.00;34.70;;;;;;4990698;28;20467;-79
2023/09/23 01:18:15;;;;;;;5.67;5.47;;;14.00;35.00;;;;;;4993499;28;20426;-79
2023/09/23 01:20:44;;;;;;;5.47;5.17;;;14.00;35.00;;;;;;4991569;28;20216;-79
2023/09/23 01:23:10;;;;;;;5.00;4.80;;;13.90;34.00;;;;;;4988945;28;20442;-79
2023/09/23 01:25:36;;;;;;;5.40;5.10;;;13.80;34.80;;;;;;4990450;28;20429;-79
2023/09/23 01:28:08;;;;;;;5.40;5.20;;;13.70;34.70;;;;;;4988249;28;20436;-78
2023/09/23 01:30:35;;;;;;;5.40;5.20;;;13.70;34.70;;;;;;4984636;28;20909;-77
2023/09/23 01:33:04;;;;;;;4.97;4.77;;;13.60;34.60;;;;;;4985399;28;20843;-79
2023/09/23 01:35:31;;;;;;;4.60;4.50;;;13.60;34.60;;;;;;4984275;28;20514;-77
2023/09/23 01:37:57;;;;;;;4.63;4.53;;;13.70;34.10;;;;;;4983472;28;20425;-78
2023/09/23 01:40:23;;;;;;;5.03;4.83;;;13.60;33.10;;;;;;4979103;28;20465;-77
2023/09/23 01:42:51;;;;;;;5.03;4.83;;;13.60;33.40;;;;;;4991650;28;20186;-76
2023/09/23 01:45:19;;;;;;;5.30;5.10;;;13.50;33.40;;;;;;4989539;28;20584;-76
2023/09/23 01:47:45;;;;;;;5.60;5.20;;;13.50;33.40;;;;;;4990669;28;20436;-77
2023/09/23 01:50:11;;;;;;;5.00;4.90;;;13.60;32.90;;;;;;4986977;28;20425;-77
2023/09/23 01:52:40;;;;;;;5.13;4.83;;;13.70;33.90;;;;;;4986609;28;20447;-77
2023/09/23 01:55:06;;;;;;;5.23;5.03;;;14.00;33.20;;;;;;4984889;28;20963;-77
2023/09/23 01:57:35;;;;;;;4.43;4.33;;;14.30;31.40;;;;;;4983918;28;20509;-77
2023/09/23 02:00:02;;;;;;;5.43;5.23;;;14.60;30.30;;;;;;4981739;28;20989;-76
2023/09/23 02:02:28;;;;;;;4.87;4.67;;;14.70;29.00;;;;;;4985578;28;20449;-77
2023/09/23 02:04:53;;;;;;;5.40;5.20;;;14.60;28.70;;;;;;4986746;28;20490;-78
2023/09/23 02:07:19;;;;;;;5.40;5.20;;;14.30;29.50;;;;;;4981687;28;20182;-78
2023/09/23 02:09:45;;;;;;;5.80;5.60;;;14.10;30.40;;;;;;4983232;28;20678;-78
2023/09/23 02:12:12;;;;;;;5.40;5.20;;;13.90;31.10;;;;;;4982474;28;20234;-77
2023/09/23 02:14:39;;;;;;;5.27;5.07;;;13.90;31.60;;;;;;4984708;28;20437;-77
2023/09/23 02:17:05;;;;;;;6.33;6.03;;;13.80;31.30;;;;;;4986559;28;20465;-77
2023/09/23 02:19:30;;;;;;;5.57;5.40;;;13.80;31.70;;;;;;4984166;28;20563;-77
2023/09/23 02:21:56;;;;;;;5.37;5.27;;;13.80;31.30;;;;;;4982157;28;20229;-78
2023/09/23 02:24:22;;;;;;;5.53;5.33;;;13.80;31.50;;;;;;4985272;28;20190;-78
2023/09/23 02:26:48;;;;;;;6.00;5.80;;;13.90;31.90;;;;;;4984830;28;20737;-78
2023/09/23 02:29:15;;;;;;;5.97;5.67;;;14.20;31.10;;;;;;4984562;28;20184;-78
2023/09/23 02:31:46;;;;;;;5.33;5.23;;;14.40;30.10;;;;;;4982624;28;20627;-78
2023/09/23 02:34:14;;;;;;;5.30;5.10;;;14.60;29.50;;;;;;4983984;28;20462;-78
2023/09/23 02:36:41;;;;;;;5.93;5.73;;;14.70;28.50;;;;;;4985310;28;20429;-78
2023/09/23 02:39:06;;;;;;;5.37;5.20;;;14.40;29.30;;;;;;4985562;28;20461;-77
2023/09/23 02:41:33;;;;;;;5.40;5.20;;;14.30;30.00;;;;;;4988059;28;20521;-77
2023/09/23 02:43:58;;;;;;;6.00;5.70;;;14.40;30.10;;;;;;4982308;28;20189;-77
2023/09/23 02:46:24;;;;;;;6.20;5.90;;;14.50;29.50;;;;;;4988649;28;20533;-77
2023/09/23 02:48:49;;;;;;;5.60;5.37;;;14.60;29.20;;;;;;4980735;28;20190;-77
2023/09/23 02:51:15;;;;;;;5.47;5.27;;;14.80;29.00;;;;;;4982917;28;20215;-77
2023/09/23 02:53:40;;;;;;;5.90;5.60;;;15.00;28.60;;;;;;4984521;28;20268;-77
2023/09/23 02:56:07;;;;;;;6.00;5.80;;;15.10;28.30;;;;;;4985158;28;20569;-75
2023/09/23 02:58:34;;;;;;;5.53;5.33;;;15.20;27.90;;;;;;4981129;28;20213;-76
2023/09/23 03:01:04;;;;;;;5.40;5.20;;;15.20;27.50;;;;;;4981576;28;20962;-77
2023/09/23 03:03:30;;;;;;;5.70;5.40;;;15.30;27.20;;;;;;4981662;28;20489;-77
2023/09/23 03:05:57;;;;;;;5.80;5.50;;;15.40;26.80;;;;;;4982750;28;20492;-77
2023/09/23 03:08:23;;;;;;;5.43;5.33;;;15.40;26.80;;;;;;4985294;28;20429;-77
2023/09/23 03:10:51;;;;;;;5.20;5.00;;;15.30;27.00;;;;;;4985300;28;20479;-77
2023/09/23 03:13:17;;;;;;;5.57;5.30;;;15.40;26.80;;;;;;4984593;28;20491;-75
2023/09/23 03:15:50;;;;;;;5.67;5.47;;;15.40;26.80;;;;;;4984213;28;20779;-75
2023/09/23 03:18:27;;;;;;;6.10;5.80;;;15.40;27.10;;;;;;4984226;28;20517;-77
2023/09/23 03:20:55;;;;;;;5.50;5.30;;;15.30;27.10;;;;;;4986423;28;20445;-75
2023/09/23 03:23:21;;;;;;;5.73;5.53;;;15.20;26.70;;;;;;4984784;28;20437;-75
2023/09/23 03:25:48;;;;;;;5.23;5.13;;;15.30;27.00;;;;;;4982088;28;20434;-77
2023/09/23 03:28:16;;;;;;;5.60;5.40;;;15.30;26.80;;;;;;4982917;28;20186;-77
2023/09/23 03:30:48;;;;;;;4.90;4.80;;;15.30;26.80;;;;;;4984035;28;20455;-77
2023/09/23 03:33:18;;;;;;;5.80;5.60;;;15.30;26.80;;;;;;4984531;28;20436;-77
2023/09/23 03:35:44;;;;;;;5.80;5.60;;;15.40;26.80;;;;;;4982606;28;20950;-77
2023/09/23 03:38:11;;;;;;;5.93;5.77;;;15.40;26.80;;;;;;4981592;28;20492;-77
2023/09/23 03:40:39;;;;;;;5.50;5.30;;;15.10;26.70;;;;;;4983556;28;20417;-77
2023/09/23 03:43:05;;;;;;;5.87;5.47;;;14.80;28.00;;;;;;4983872;28;20428;-77
2023/09/23 03:45:34;;;;;;;6.00;5.77;;;14.80;28.50;;;;;;4981242;28;20442;-77
2023/09/23 03:48:01;;;;;;;5.63;5.43;;;14.90;28.00;;;;;;4980638;28;20469;-77
2023/09/23 03:50:26;;;;;;;5.20;5.00;;;15.00;27.50;;;;;;4983907;28;22777;-77
2023/09/23 03:52:52;;;;;;;4.90;4.80;;;14.90;27.30;;;;;;4985724;28;20428;-78
2023/09/23 03:55:18;;;;;;;4.77;4.57;;;14.60;27.90;;;;;;4986301;28;20465;-78
2023/09/23 03:57:46;;;;;;;5.27;5.17;;;14.30;28.90;;;;;;4984590;28;20718;-78
2023/09/23 04:00:16;;;;;;;5.43;5.30;;;14.00;29.70;;;;;;4983931;28;20205;-77
2023/09/23 04:02:43;;;;;;;6.60;5.10;;;13.90;30.20;;;;;;4987417;28;20456;-78
2023/09/23 04:05:08;;;;;;;5.70;5.50;;;13.80;31.20;;;;;;4987176;28;20425;-76
2023/09/23 04:07:34;;;;;;;5.20;5.00;;;13.90;31.10;;;;;;4985019;28;20473;-78
2023/09/23 04:10:00;;;;;;;4.90;4.70;;;14.00;31.00;;;;;;4982053;28;20179;-79
2023/09/23 04:12:25;;;;;;;5.57;5.37;;;14.20;30.30;;;;;;4985627;28;20215;-78
2023/09/23 04:14:51;;;;;;;5.70;5.40;;;14.30;30.10;;;;;;4986782;28;20178;-78
2023/09/23 04:17:16;;;;;;;5.80;5.53;;;14.50;29.30;;;;;;4985861;28;20662;-78
2023/09/23 04:19:42;;;;;;;5.30;5.00;;;14.60;28.50;;;;;;4987325;28;20210;-78
2023/09/23 04:22:07;;;;;;;5.90;5.60;;;14.60;28.90;;;;;;4985584;28;20202;-78
2023/09/23 04:24:33;;;;;;;5.70;5.50;;;14.60;28.90;;;;;;4989048;28;20178;-78
2023/09/23 04:26:59;;;;;;;5.70;5.50;;;14.50;28.10;;;;;;4990895;28;20178;-79
2023/09/23 04:29:25;;;;;;;5.77;5.37;;;14.30;28.70;;;;;;4988163;28;20248;-78
2023/09/23 04:31:51;;;;;;;5.37;5.17;;;14.10;29.50;;;;;;4985330;28;20847;-79
2023/09/23 04:34:17;;;;;;;5.47;5.27;;;13.90;29.80;;;;;;4986868;28;20426;-79
2023/09/23 04:36:43;;;;;;;5.70;5.50;;;13.90;29.90;;;;;;4991342;28;20186;-79
2023/09/23 04:39:09;;;;;;;5.93;5.73;;;13.90;30.10;;;;;;4990541;28;20879;-79
2023/09/23 04:41:37;;;;;;;5.97;5.77;;;13.80;30.40;;;;;;4986032;28;20521;-78
2023/09/23 04:44:02;;;;;;;6.20;5.83;;;13.90;31.40;;;;;;4986118;28;20187;-78
2023/09/23 04:46:32;;;;;;;5.97;5.77;;;14.10;30.80;;;;;;4995644;28;20421;-79
2023/09/23 04:48:58;;;;;;;5.67;5.37;;;14.10;29.90;;;;;;4987280;28;20277;-79
2023/09/23 04:51:23;;;;;;;6.00;5.70;;;13.90;29.90;;;;;;4993854;28;20508;-78
2023/09/23 04:53:50;;;;;;;5.50;5.30;;;14.10;30.30;;;;;;4985234;28;20189;-76
2023/09/23 04:56:17;;;;;;;5.73;5.53;;;14.30;29.40;;;;;;4987794;28;20690;-77
2023/09/23 04:58:43;;;;;;;5.40;5.20;;;14.30;29.30;;;;;;4987581;28;20462;-79
2023/09/23 05:01:15;;;;;;;5.77;5.50;;;14.40;29.10;;;;;;4987194;28;20441;-78
2023/09/23 05:03:42;;;;;;;5.63;5.33;;;14.30;29.40;;;;;;4986888;28;20422;-79
2023/09/23 05:06:11;;;;;;;5.27;5.07;;;14.30;29.40;;;;;;4986922;28;20502;-79
2023/09/23 05:08:36;;;;;;;5.93;5.67;;;14.10;29.20;;;;;;4979268;28;20429;-78
2023/09/23 05:11:03;;;;;;;5.77;5.57;;;13.90;29.80;;;;;;4986924;28;20854;-78
2023/09/23 05:13:29;;;;;;;5.40;5.20;;;13.80;30.80;;;;;;4984990;28;20186;-80
2023/09/23 05:15:55;;;;;;;6.07;5.87;;;13.80;30.70;;;;;;4987115;28;20961;-78
2023/09/23 05:18:21;;;;;;;5.87;5.67;;;13.80;30.60;;;;;;4985856;28;20484;-76
2023/09/23 05:20:47;;;;;;;6.40;6.20;;;13.60;30.60;;;;;;4987989;28;20863;-78
2023/09/23 05:23:13;;;;;;;5.47;5.27;;;13.50;31.60;;;;;;4988935;28;20178;-78
2023/09/23 05:25:41;;;;;;;5.53;5.30;;;13.70;32.30;;;;;;4986140;28;20426;-78
2023/09/23 05:28:06;;;;;;;5.30;5.10;;;13.80;30.80;;;;;;4984597;28;20426;-78
2023/09/23 05:30:32;;;;;;;5.50;5.07;;;13.80;30.50;;;;;;4986542;28;20855;-79
2023/09/23 05:32:57;;;;;;;5.33;5.03;;;13.90;30.70;;;;;;4988692;28;20213;-78
2023/09/23 05:35:24;;;;;;;5.00;4.90;;;14.20;30.00;;;;;;4986943;28;20232;-78
2023/09/23 05:37:51;;;;;;;5.33;5.17;;;14.20;29.00;;;;;;4979495;28;20200;-78
2023/09/23 05:40:27;;;;;;;5.57;5.37;;;14.10;29.20;;;;;;4985808;28;20464;-77
2023/09/23 05:42:53;;;;;;;5.53;5.33;;;14.10;29.40;;;;;;4987866;28;20444;-77
2023/09/23 05:45:23;;;;;;;6.20;5.90;;;14.00;29.30;;;;;;4975117;28;20437;-77
2023/09/23 05:47:48;;;;;;;6.03;5.73;;;13.80;29.30;;;;;;4975021;28;20772;-75
2023/09/23 05:50:17;;;;;;;5.00;4.70;;;13.80;29.50;;;;;;4975346;28;20528;-77
2023/09/23 05:52:45;;;;;;;5.90;5.70;;;13.90;29.60;;;;;;4973510;28;20206;-78
2023/09/23 05:55:11;;;;;;;5.67;5.40;;;13.90;29.30;;;;;;4973464;28;20802;-77
2023/09/23 05:57:38;;;;;;;5.53;5.23;;;13.80;30.20;;;;;;4975987;28;20795;-77
2023/09/23 06:00:10;;;;;;;5.57;5.37;;;13.80;29.90;;;;;;4978715;28;20484;-78
2023/09/23 06:02:35;;;;;;;5.43;5.23;;;13.80;29.80;;;;;;4979106;28;20426;-79
2023/09/23 06:05:02;;;;;;;5.30;5.10;;;13.80;29.90;;;;;;4977850;28;20473;-77
2023/09/23 06:07:33;;;;;;;5.20;5.00;;;13.60;30.00;;;;;;4975937;28;20185;-78
2023/09/23 06:09:59;;;;;;;5.83;5.63;;;13.50;30.90;;;;;;4974230;28;20472;-77
2023/09/23 06:12:29;;;;;;;5.40;5.20;;;13.50;31.50;;;;;;4974127;28;20520;-77
2023/09/23 06:14:57;;;;;;;5.60;5.40;;;13.50;31.60;;;;;;4974035;28;20445;-78
2023/09/23 06:17:23;;;;;;;5.97;5.77;;;13.50;31.60;;;;;;4973629;28;20485;-78
2023/09/23 06:19:49;;;;;;;6.30;6.00;;;13.50;31.40;;;;;;4973997;28;20564;-77
2023/09/23 06:22:14;;;;;;;5.53;5.33;;;13.60;31.20;;;;;;4973552;28;20960;-78
2023/09/23 06:24:40;;;;;;;5.77;5.47;;;13.70;30.80;;;;;;4973732;28;20183;-79
2023/09/23 06:27:05;;;;;;;5.40;5.20;;;13.60;30.70;;;;;;4973858;28;20245;-77
2023/09/23 06:29:31;;;;;;;5.97;5.57;;;13.60;32.00;;;;;;4974077;28;20182;-78
2023/09/23 06:31:56;;;;;;;6.00;5.77;;;13.70;31.70;;;;;;4973556;28;20261;-78
2023/09/23 06:34:22;;;;;;;5.20;5.07;;;13.80;30.50;;;;;;4973548;28;20212;-79
2023/09/23 06:36:47;;;;;;;5.27;5.07;;;13.90;30.10;;;;;;4974001;28;20660;-78
2023/09/23 06:39:13;;;;;;;6.20;5.77;;;13.80;30.10;;;;;;4972571;28;20209;-78
2023/09/23 06:41:38;;;;;;;5.83;5.53;;;13.90;30.10;;;;;;4971793;28;20203;-77
2023/09/23 06:44:04;;;;;;;6.30;5.93;;;13.90;30.40;;;;;;4974184;28;20198;-78
2023/09/23 06:46:30;;;;;;;5.87;5.60;;;13.90;29.90;;;;;;4974101;28;20183;-79
2023/09/23 06:48:56;;;;;;;6.20;5.90;;;13.90;30.00;;;;;;4974722;28;20281;-79
2023/09/23 06:51:21;;;;;;;6.00;5.80;;;13.90;30.00;;;;;;4973941;28;20902;-79
2023/09/23 06:53:47;;;;;;;6.03;5.53;;;13.90;29.80;;;;;;4973687;28;20528;-78
2023/09/23 06:56:12;;;;;;;5.73;5.50;;;13.90;29.90;;;;;;4973483;28;20182;-79
2023/09/23 06:58:38;;;;;;;5.30;5.10;;;13.90;30.40;;;;;;4973285;28;20256;-79
2023/09/23 07:01:03;;;;;;;5.63;5.23;;;14.00;30.00;;;;;;4971798;28;20690;-78
2023/09/23 07:03:29;;;;;;;5.63;5.43;;;14.20;30.00;;;;;;4972846;28;20171;-78
2023/09/23 07:05:54;;;;;;;5.13;5.00;;;14.30;29.40;;;;;;4973354;28;20257;-78
2023/09/23 07:08:20;;;;;;;5.27;4.90;;;14.40;29.50;;;;;;4972168;28;20202;-79
2023/09/23 07:10:45;;;;;;;5.73;5.53;;;14.50;29.40;;;;;;4972463;28;20233;-78
2023/09/23 07:13:11;;;;;;;5.63;5.43;;;14.50;29.00;;;;;;4972523;28;20269;-79
2023/09/23 07:15:38;;;;;;;6.07;5.77;;;14.50;28.90;;;;;;4971612;28;20330;-78
2023/09/23 07:18:04;;;;;;;6.20;6.00;;;14.60;29.70;;;;;;4971911;28;20183;-77
2023/09/23 07:20:30;;;;;;;5.90;5.70;;;14.50;28.80;;;;;;4973093;28;20513;-77
2023/09/23 07:22:55;;;;;;;5.70;5.50;;;14.50;29.10;;;;;;4971632;28;20426;-78
2023/09/23 07:25:21;;;;;;;5.40;5.20;;;14.50;29.20;;;;;;4971465;28;20643;-77
2023/09/23 07:27:47;;;;;;;6.20;5.80;;;14.60;29.10;;;;;;4973239;28;20274;-77
2023/09/23 07:30:14;;;;;;;4.97;4.87;;;14.70;28.20;;;;;;4971794;28;20182;-79
2023/09/23 07:32:40;;;;;;;5.90;5.60;;;14.70;28.50;;;;;;4972175;28;20240;-78
2023/09/23 07:35:06;;;;;;;5.47;5.27;;;14.70;28.00;;;;;;4971623;28;20430;-76
2023/09/23 07:37:32;;;;;;;5.43;5.23;;;14.70;28.30;;;;;;4973120;28;20616;-78
2023/09/23 07:39:57;;;;;;;5.10;4.90;;;14.80;28.50;;;;;;4978170;28;20545;-79
2023/09/23 07:42:23;;;;;;;5.90;5.70;;;14.90;28.10;;;;;;4981601;28;20254;-78
2023/09/23 07:44:48;;;;;;;5.60;5.40;;;15.00;28.40;;;;;;4972520;28;20174;-77
2023/09/23 07:47:14;;;;;;;5.90;5.50;;;15.10;27.10;;;;;;4973149;28;20606;-78
2023/09/23 07:49:39;;;;;;;6.87;6.57;;;15.00;27.60;;;;;;4971798;28;20624;-78
2023/09/23 07:52:05;;;;;;;6.53;6.23;;;15.10;26.80;;;;;;4974193;28;20202;-79
2023/09/23 07:54:31;;;;;;;6.07;5.87;;;15.10;27.00;;;;;;4977398;28;20181;-77
2023/09/23 07:56:56;;;;;;;6.37;5.97;;;15.20;26.70;;;;;;4976224;28;20182;-79
2023/09/23 07:59:22;;;;;;;5.77;5.57;;;15.30;26.80;;;;;;4976757;28;20301;-78
2023/09/23 08:01:48;;;;;;;5.60;5.30;;;15.30;25.70;;;;;;4977141;28;20258;-77
2023/09/23 08:04:13;;;;;;;5.53;5.33;;;15.30;25.90;;;;;;4979599;28;20499;-78
2023/09/23 08:06:39;;;;;;;5.43;5.23;;;15.30;25.60;;;;;;4979349;28;20445;-78
2023/09/23 08:09:05;;;;;;;6.43;5.93;;;15.40;25.70;;;;;;4977542;28;20186;-77
2023/09/23 08:11:32;;;;;;;5.10;4.90;;;15.40;25.30;;;;;;4978664;28;20198;-78
2023/09/23 08:13:57;;;;;;;5.60;5.30;;;15.50;25.40;;;;;;4977349;28;20425;-78
2023/09/23 08:16:23;;;;;;;5.40;5.10;;;15.50;24.60;;;;;;4975961;28;20430;-78
2023/09/23 08:18:49;;;;;;;5.20;5.00;;;15.50;24.70;;;;;;4976891;28;20206;-78
2023/09/23 08:21:15;;;;;;;5.50;5.30;;;15.50;23.70;;;;;;4975429;28;20198;-78
2023/09/23 08:23:41;;;;;;;5.13;4.93;;;15.60;24.30;;;;;;4976518;28;20613;-78
2023/09/23 08:26:06;;;;;;;4.90;4.80;;;15.60;22.50;;;;;;4977119;28;20418;-77
2023/09/23 08:28:32;;;;;;;5.53;5.33;;;15.70;22.20;;;;;;4976173;28;20292;-77
2023/09/23 08:30:58;;;;;;;6.00;5.80;;;15.70;22.60;;;;;;4975937;28;20217;-78
2023/09/23 08:33:24;;;;;;;6.30;6.00;;;15.70;23.30;;;;;;4975262;28;20258;-78
2023/09/23 08:35:49;;;;;;;6.27;5.97;;;15.70;23.20;;;;;;4976689;28;20210;-78
2023/09/23 08:38:15;;;;;;;6.50;6.30;;;15.80;23.50;;;;;;4976817;28;20442;-79
2023/09/23 08:40:43;;;;;;;7.07;6.77;;;15.90;23.30;;;;;;4976298;28;20521;-77
2023/09/23 08:43:09;;;;;;;5.87;5.67;;;16.00;23.40;;;;;;4976664;28;20418;-78
2023/09/23 08:45:46;;;;;;;6.00;5.70;;;15.90;22.30;;;;;;4976219;28;20436;-79
2023/09/23 08:48:12;;;;;;;5.93;5.73;;;15.90;22.60;;;;;;4976475;28;20181;-79
2023/09/23 08:50:44;;;;;;;5.90;5.60;;;16.00;22.90;;;;;;4974922;28;20430;-79
2023/09/23 08:53:13;;;;;;;6.30;6.00;;;15.90;22.80;;;;;;4976886;28;20441;-79
2023/09/23 08:55:38;;;;;;;6.00;5.63;;;16.00;22.80;;;;;;4975787;28;20433;-79
2023/09/23 08:58:04;;;;;;;6.33;5.80;;;16.30;22.30;;;;;;4980613;28;20723;-78
2023/09/23 09:00:30;;;;;;;6.10;5.90;;;16.70;22.20;;;;;;4976058;28;20213;-79
2023/09/23 09:02:57;;;;;;;6.27;5.97;;;16.80;20.50;;;;;;4975518;28;20175;-78
2023/09/23 09:05:23;;;;;;;5.80;5.60;;;16.90;20.60;;;;;;4976569;28;20448;-78
2023/09/23 09:07:50;;;;;;;5.80;5.60;;;16.90;20.10;;;;;;4975139;28;20437;-77
2023/09/23 09:10:16;;;;;;;6.00;5.70;;;16.80;20.00;;;;;;4975905;28;20421;-78
2023/09/23 09:12:42;;;;;;;6.30;6.00;;;17.00;20.10;;;;;;4976008;28;20438;-78
2023/09/23 09:15:08;;;;;;;6.53;6.23;;;17.10;20.30;;;;;;4976551;28;20510;-79
2023/09/23 09:17:34;;;;;;;6.20;5.70;;;17.20;19.80;;;;;;4974171;28;20190;-78
2023/09/23 09:20:09;;;;;;;5.60;5.40;;;17.40;19.70;;;;;;4975408;28;20461;-77
2023/09/23 09:22:36;;;;;;;5.80;5.60;;;17.40;19.20;;;;;;4975360;28;20195;-76
2023/09/23 09:25:03;;;;;;;6.77;6.47;;;17.40;18.60;;;;;;4975708;28;20421;-78
2023/09/23 09:27:29;;;;;;;6.23;5.93;;;17.50;18.30;;;;;;4975826;28;20410;-76
2023/09/23 09:29:55;;;;;;;6.67;6.20;;;17.80;18.90;;;;;;4974214;28;21017;-79
2023/09/23 09:32:29;;;;;;;5.97;5.67;;;17.80;18.20;;;;;;4975472;28;20457;-79
2023/09/23 09:35:02;;;;;;;6.10;5.90;;;17.80;18.30;;;;;;4975514;28;20166;-79
2023/09/23 09:37:34;;;;;;;6.57;6.10;;;17.80;17.00;;;;;;4976749;28;20497;-78
2023/09/23 09:40:01;;;;;;;6.33;6.03;;;17.90;16.90;;;;;;4975973;28;20461;-79
2023/09/23 09:42:35;;;;;;;6.50;6.20;;;17.80;17.10;;;;;;4974390;28;20942;-78
2023/09/23 09:45:05;;;;;;;7.03;6.63;;;17.80;17.00;;;;;;4977121;28;20782;-77
2023/09/23 09:47:32;;;;;;;6.00;5.70;;;17.90;16.50;;;;;;4976202;28;20476;-78
2023/09/23 09:49:59;;;;;;;5.27;5.07;;;17.80;16.50;;;;;;4975908;28;20513;-78
2023/09/23 09:52:26;;;;;;;5.90;5.70;;;17.70;15.70;;;;;;4976244;28;20755;-79
2023/09/23 09:54:54;;;;;;;5.90;5.70;;;17.70;16.60;;;;;;4974710;28;20422;-79
2023/09/23 09:57:22;;;;;;;6.90;6.43;;;17.70;16.20;;;;;;4975904;28;20445;-77
2023/09/23 09:59:48;;;;;;;5.30;5.10;;;17.70;16.50;;;;;;4973528;28;20457;-76
2023/09/23 10:02:15;;;;;;;5.00;4.80;;;17.80;15.30;;;;;;4974913;28;20690;-77
2023/09/23 10:04:45;;;;;;;4.50;4.40;;;17.80;15.00;;;;;;4974894;28;20441;-78
2023/09/23 10:07:11;;;;;;;4.50;4.30;;;17.80;15.30;;;;;;4974454;28;20414;-79
2023/09/23 10:09:40;;;;;;;6.30;5.90;;;17.70;15.10;;;;;;4975115;28;20419;-79
2023/09/23 10:12:07;;;;;;;4.93;4.73;;;17.80;15.20;;;;;;4973042;28;20298;-77
2023/09/23 10:14:33;;;;;;;5.60;5.30;;;18.10;15.70;;;;;;4974715;28;20945;-77
2023/09/23 10:17:02;;;;;;;5.60;5.30;;;18.10;15.40;;;;;;4974902;28;20414;-77
2023/09/23 10:19:41;;;;;;;5.40;4.90;;;18.20;14.20;;;;;;4973995;28;20542;-76
2023/09/23 10:22:13;;;;;;;4.70;4.30;;;18.20;14.50;;;;;;4974868;28;20438;-78
2023/09/23 10:24:40;;;;;;;4.93;4.63;;;18.10;14.40;;;;;;4974710;28;20780;-77
2023/09/23 10:27:09;;;;;;;5.80;5.40;;;18.00;14.30;;;;;;4974375;28;20414;-77
2023/09/23 10:29:48;;;;;;;5.30;5.10;;;18.10;15.10;;;;;;4973917;28;20473;-76
2023/09/23 10:32:15;;;;;;;5.17;4.60;;;18.10;15.10;;;;;;4974162;28;20549;-75
2023/09/23 10:34:50;;;;;;;4.60;4.40;;;18.10;15.60;;;;;;4974280;28;20934;-77
2023/09/23 10:37:30;;;;;;;5.03;4.83;;;18.10;14.30;;;;;;4975326;28;20792;-77
2023/09/23 10:39:59;;;;;;;12.23;11.17;;;18.20;14.80;;;;;;4974104;28;20457;-78
2023/09/23 10:42:25;;;;;;;5.40;5.13;;;18.30;13.40;;;;;;4974293;28;20438;-76
2023/09/23 10:44:50;;;;;;;4.50;4.30;;;18.40;13.30;;;;;;4973496;28;20419;-77
2023/09/23 10:47:16;;;;;;;4.90;4.70;;;18.70;13.80;;;;;;4974305;28;20260;-76
2023/09/23 10:49:42;;;;;;;5.10;4.60;;;18.90;12.60;;;;;;4974414;28;20183;-77
2023/09/23 10:52:07;;;;;;;4.70;4.50;;;18.80;13.10;;;;;;4973932;28;20194;-78
2023/09/23 10:54:34;;;;;;;5.47;5.17;;;18.80;12.80;;;;;;4974357;28;20420;-78
2023/09/23 10:57:00;;;;;;;4.80;4.60;;;18.90;12.30;;;;;;4974356;28;20643;-77
2023/09/23 10:59:26;;;;;;;4.80;4.47;;;18.90;12.60;;;;;;4974414;28;20472;-77
2023/09/23 11:01:55;;;;;;;5.47;5.10;;;18.90;12.80;;;;;;4973699;28;20665;-79
2023/09/23 11:04:23;;;;;;;5.53;5.13;;;18.90;13.30;;;;;;4974156;28;20169;-76
2023/09/23 11:06:48;;;;;;;5.77;5.10;;;19.00;12.60;;;;;;4974776;28;20405;-77
2023/09/23 11:09:14;;;;;;;5.70;5.40;;;19.10;12.50;;;;;;4974401;28;20418;-77
2023/09/23 11:11:41;;;;;;;5.47;5.27;;;19.10;14.00;;;;;;4974485;28;20194;-77
2023/09/23 11:14:19;;;;;;;5.77;5.47;;;19.10;12.60;;;;;;4974082;28;20175;-77
2023/09/23 11:16:45;;;;;;;5.23;5.03;;;19.00;13.70;;;;;;4972699;28;20429;-77
2023/09/23 11:19:10;;;;;;;7.30;4.43;;;18.90;12.80;;;;;;4972700;28;20550;-77
2023/09/23 11:21:44;;;;;;;4.47;4.23;;;18.90;13.20;;;;;;4973891;28;20438;-76
2023/09/23 11:24:09;;;;;;;4.60;4.40;;;18.70;13.30;;;;;;4973859;28;20171;-75
2023/09/23 11:26:39;;;;;;;4.90;4.70;;;18.50;13.40;;;;;;4973613;28;20449;-78
2023/09/23 11:29:05;;;;;;;4.57;4.27;;;18.30;14.00;;;;;;4973989;28;20543;-78
2023/09/23 11:31:31;;;;;;;4.70;4.40;;;18.40;15.00;;;;;;4973473;28;20465;-77
2023/09/23 11:33:57;;;;;;;4.70;4.37;;;18.40;14.80;;;;;;4972533;28;20417;-77
2023/09/23 11:36:22;;;;;;;5.37;5.03;;;18.50;14.20;;;;;;4974783;28;20422;-78
2023/09/23 11:38:49;;;;;;;5.30;5.00;;;18.60;14.60;;;;;;4976422;28;20199;-78
2023/09/23 11:41:15;;;;;;;4.77;4.57;;;18.60;13.50;;;;;;4976630;28;20193;-77
2023/09/23 11:43:41;;;;;;;4.90;4.57;;;18.50;14.00;;;;;;4975515;28;20840;-78
2023/09/23 11:46:06;;;;;;;4.80;4.60;;;18.50;14.00;;;;;;4976563;28;20405;-78
2023/09/23 11:48:32;;;;;;;5.03;4.63;;;18.30;14.80;;;;;;4976911;28;20188;-78
2023/09/23 11:50:57;;;;;;;4.27;4.07;;;18.20;14.90;;;;;;4976295;28;20205;-77
2023/09/23 11:53:24;;;;;;;4.43;4.23;;;18.30;15.00;;;;;;4976598;28;20667;-77
2023/09/23 11:55:50;;;;;;;5.10;4.80;;;18.40;15.10;;;;;;4977116;28;20181;-78
2023/09/23 11:58:16;;;;;;;4.97;4.67;;;18.40;15.50;;;;;;4976947;28;20438;-77
2023/09/23 12:00:42;;;;;;;5.03;4.70;;;18.50;15.40;;;;;;4976397;28;20206;-77
2023/09/23 12:03:07;;;;;;;5.30;5.10;;;18.40;13.70;;;;;;4976366;28;20429;-78
2023/09/23 12:05:33;;;;;;;5.20;5.00;;;18.50;14.00;;;;;;4976742;28;20171;-79
2023/09/23 12:07:59;;;;;;;5.27;4.97;;;18.50;13.40;;;;;;4974536;28;20175;-76
2023/09/23 12:10:25;;;;;;;5.20;4.90;;;18.60;13.70;;;;;;4974809;28;20198;-78
2023/09/23 12:12:51;;;;;;;4.90;4.70;;;18.40;12.80;;;;;;4975032;28;20425;-76
2023/09/23 12:15:16;;;;;;;5.23;4.83;;;18.30;12.90;;;;;;4974551;28;20406;-77
2023/09/23 12:17:42;;;;;;;5.53;5.20;;;18.30;12.80;;;;;;4974861;28;20214;-78
2023/09/23 12:20:11;;;;;;;5.47;5.17;;;18.20;13.00;;;;;;4973293;28;20210;-77
2023/09/23 12:22:38;;;;;;;5.13;4.93;;;18.30;13.50;;;;;;4974232;28;20187;-77
2023/09/23 12:25:06;;;;;;;5.30;5.00;;;18.40;13.30;;;;;;4975007;28;20410;-77
2023/09/23 12:27:32;;;;;;;5.07;4.77;;;18.50;12.50;;;;;;4974335;28;20881;-77
2023/09/23 12:29:58;;;;;;;6.77;5.77;;;18.30;12.30;;;;;;4975414;28;20437;-77
2023/09/23 12:32:23;;;;;;;5.53;5.23;;;18.30;13.10;;;;;;4973535;28;20831;-77
2023/09/23 12:34:49;;;;;;;5.70;5.30;;;18.30;11.90;;;;;;4974518;28;20418;-77
2023/09/23 12:37:15;;;;;;;5.50;5.30;;;18.30;13.40;;;;;;4985196;28;20214;-77
2023/09/23 12:39:41;;;;;;;5.00;4.80;;;18.40;13.00;;;;;;4984521;28;20198;-77
2023/09/23 12:42:06;;;;;;;5.30;5.10;;;18.50;12.80;;;;;;4977341;28;20457;-78
2023/09/23 12:44:32;;;;;;;5.47;5.17;;;18.50;12.10;;;;;;4976656;28;20183;-78
2023/09/23 12:46:57;;;;;;;5.57;5.27;;;18.50;11.60;;;;;;4976128;28;20261;-78